sensor_id;sensor_type;location;lat;lon;timestamp;pressure;altitude;pressure_sealevel;temperature;humidity
65157;BME280;52745;49.794;18.258;2023-04-24T00:01:04;-16318.03;;;14.28;58.27
65157;BME280;52745;49.794;18.258;2023-04-24T00:03:33;-16313.56;;;14.11;58.82
65157;BME280;52745;49.794;18.258;2023-04-24T00:06:00;-16311.25;;;14.02;59.30
65157;BME280;52745;49.794;18.258;2023-04-24T00:08:27;-16310.97;;;14.01;57.89
65157;BME280;52745;49.794;18.258;2023-04-24T00:10:54;-16312.31;;;14.06;58.40
65157;BME280;52745;49.794;18.258;2023-04-24T00:13:21;-16313.28;;;14.10;58.44
65157;BME280;52745;49.794;18.258;2023-04-24T00:15:47;-16314.09;;;14.13;57.39
65157;BME280;52745;49.794;18.258;2023-04-24T00:18:14;-16315.31;;;14.18;57.50
65157;BME280;52745;49.794;18.258;2023-04-24T00:20:40;-16316.53;;;14.22;57.73
65157;BME280;52745;49.794;18.258;2023-04-24T00:23:07;-16317.09;;;14.24;57.30
65157;BME280;52745;49.794;18.258;2023-04-24T00:25:34;-16316.81;;;14.23;57.23
65157;BME280;52745;49.794;18.258;2023-04-24T00:28:01;-16317.09;;;14.24;58.36
65157;BME280;52745;49.794;18.258;2023-04-24T00:30:28;-16318.19;;;14.28;57.04
65157;BME280;52745;49.794;18.258;2023-04-24T00:32:55;-16317.63;;;14.26;57.03
65157;BME280;52745;49.794;18.258;2023-04-24T00:35:23;-16318.03;;;14.28;56.77
65157;BME280;52745;49.794;18.258;2023-04-24T00:37:50;-16317.91;;;14.27;56.67
65157;BME280;52745;49.794;18.258;2023-04-24T00:40:16;-16318.03;;;14.28;54.99
65157;BME280;52745;49.794;18.258;2023-04-24T00:42:43;-16318.31;;;14.29;54.90
65157;BME280;52745;49.794;18.258;2023-04-24T00:45:11;-16318.44;;;14.29;53.59
65157;BME280;52745;49.794;18.258;2023-04-24T00:47:39;-16320.22;;;14.36;51.25
65157;BME280;52745;49.794;18.258;2023-04-24T00:50:06;-16322.25;;;14.44;49.27
65157;BME280;52745;49.794;18.258;2023-04-24T00:52:33;-16323.88;;;14.50;48.69
65157;BME280;52745;49.794;18.258;2023-04-24T00:54:59;-16324.44;;;14.52;47.74
65157;BME280;52745;49.794;18.258;2023-04-24T00:57:26;-16326.75;;;14.61;47.72
65157;BME280;52745;49.794;18.258;2023-04-24T00:59:53;-16329.06;;;14.69;46.14
65157;BME280;52745;49.794;18.258;2023-04-24T01:02:21;-16330.41;;;14.75;45.81
65157;BME280;52745;49.794;18.258;2023-04-24T01:04:50;-16332.06;;;14.81;44.71
65157;BME280;52745;49.794;18.258;2023-04-24T01:07:19;-16332.88;;;14.84;45.20
65157;BME280;52745;49.794;18.258;2023-04-24T01:09:47;-16333.97;;;14.88;44.82
65157;BME280;52745;49.794;18.258;2023-04-24T01:12:15;-16334.50;;;14.90;44.42
65157;BME280;52745;49.794;18.258;2023-04-24T01:14:44;-16334.63;;;14.90;44.78
65157;BME280;52745;49.794;18.258;2023-04-24T01:17:11;-16335.31;;;14.93;44.58
65157;BME280;52745;49.794;18.258;2023-04-24T01:19:38;-16336.13;;;14.96;44.42
65157;BME280;52745;49.794;18.258;2023-04-24T01:22:10;-16336.13;;;14.96;44.27
65157;BME280;52745;49.794;18.258;2023-04-24T01:24:38;-16336.28;;;14.97;44.56
65157;BME280;52745;49.794;18.258;2023-04-24T01:27:05;-16336.13;;;14.96;44.68
65157;BME280;52745;49.794;18.258;2023-04-24T01:29:32;-16336.69;;;14.98;45.00
65157;BME280;52745;49.794;18.258;2023-04-24T01:31:59;-16336.41;;;14.97;46.06
65157;BME280;52745;49.794;18.258;2023-04-24T01:34:26;-16335.59;;;14.94;45.77
65157;BME280;52745;49.794;18.258;2023-04-24T01:36:53;-16334.38;;;14.89;45.51
65157;BME280;52745;49.794;18.258;2023-04-24T01:39:20;-16333.97;;;14.88;45.42
65157;BME280;52745;49.794;18.258;2023-04-24T01:41:54;-16334.22;;;14.89;45.22
65157;BME280;52745;49.794;18.258;2023-04-24T01:44:21;-16334.38;;;14.89;44.87
65157;BME280;52745;49.794;18.258;2023-04-24T01:46:48;-16334.38;;;14.89;45.03
65157;BME280;52745;49.794;18.258;2023-04-24T01:49:15;-16333.97;;;14.88;44.90
65157;BME280;52745;49.794;18.258;2023-04-24T01:51:42;-16333.81;;;14.87;45.01
65157;BME280;52745;49.794;18.258;2023-04-24T01:54:08;-16332.19;;;14.81;46.98
65157;BME280;52745;49.794;18.258;2023-04-24T01:56:36;-16330.69;;;14.76;47.77
65157;BME280;52745;49.794;18.258;2023-04-24T01:59:07;-16324.69;;;14.53;50.23
65157;BME280;52745;49.794;18.258;2023-04-24T02:01:36;-16325.25;;;14.55;49.53
65157;BME280;52745;49.794;18.258;2023-04-24T02:04:04;-16322.53;;;14.45;50.30
65157;BME280;52745;49.794;18.258;2023-04-24T02:06:31;-16322.25;;;14.44;50.42
65157;BME280;52745;49.794;18.258;2023-04-24T02:09:00;-16320.75;;;14.38;51.00
65157;BME280;52745;49.794;18.258;2023-04-24T02:11:28;-16319.94;;;14.35;51.35
65157;BME280;52745;49.794;18.258;2023-04-24T02:13:55;-16319.13;;;14.32;51.72
65157;BME280;52745;49.794;18.258;2023-04-24T02:16:21;-16319.00;;;14.32;52.06
65157;BME280;52745;49.794;18.258;2023-04-24T02:18:48;-16318.19;;;14.28;52.39
65157;BME280;52745;49.794;18.258;2023-04-24T02:21:16;-16317.22;;;14.25;52.99
65157;BME280;52745;49.794;18.258;2023-04-24T02:23:42;-16317.09;;;14.24;52.51
65157;BME280;52745;49.794;18.258;2023-04-24T02:26:09;-16317.22;;;14.25;52.36
65157;BME280;52745;49.794;18.258;2023-04-24T02:28:36;-16317.75;;;14.27;50.71
65157;BME280;52745;49.794;18.258;2023-04-24T02:31:03;-16317.63;;;14.26;51.83
65157;BME280;52745;49.794;18.258;2023-04-24T02:33:29;-16318.19;;;14.28;52.17
65157;BME280;52745;49.794;18.258;2023-04-24T02:35:56;-16317.34;;;14.25;51.11
65157;BME280;52745;49.794;18.258;2023-04-24T02:38:23;-16316.28;;;14.21;51.81
65157;BME280;52745;49.794;18.258;2023-04-24T02:40:50;-16316.53;;;14.22;51.17
65157;BME280;52745;49.794;18.258;2023-04-24T02:43:16;-16317.50;;;14.26;52.05
65157;BME280;52745;49.794;18.258;2023-04-24T02:45:43;-16317.34;;;14.25;51.06
65157;BME280;52745;49.794;18.258;2023-04-24T02:48:10;-16316.81;;;14.23;51.81
65157;BME280;52745;49.794;18.258;2023-04-24T02:50:37;-16315.72;;;14.19;51.65
65157;BME280;52745;49.794;18.258;2023-04-24T02:53:03;-16315.44;;;14.18;51.63
65157;BME280;52745;49.794;18.258;2023-04-24T02:55:30;-16315.03;;;14.17;51.89
65157;BME280;52745;49.794;18.258;2023-04-24T02:57:57;-16315.19;;;14.17;52.25
65157;BME280;52745;49.794;18.258;2023-04-24T03:00:24;-16313.97;;;14.13;50.73
65157;BME280;52745;49.794;18.258;2023-04-24T03:02:51;-16314.38;;;14.14;52.57
65157;BME280;52745;49.794;18.258;2023-04-24T03:05:18;-16313.81;;;14.12;52.15
65157;BME280;52745;49.794;18.258;2023-04-24T03:07:44;-16313.28;;;14.10;53.70
65157;BME280;52745;49.794;18.258;2023-04-24T03:10:12;-16313.00;;;14.09;52.76
65157;BME280;52745;49.794;18.258;2023-04-24T03:12:38;-16312.75;;;14.08;52.05
65157;BME280;52745;49.794;18.258;2023-04-24T03:15:05;-16312.19;;;14.06;53.84
65157;BME280;52745;49.794;18.258;2023-04-24T03:17:32;-16311.50;;;14.03;54.13
65157;BME280;52745;49.794;18.258;2023-04-24T03:19:59;-16311.66;;;14.04;53.91
65157;BME280;52745;49.794;18.258;2023-04-24T03:22:25;-16310.81;;;14.01;54.21
65157;BME280;52745;49.794;18.258;2023-04-24T03:24:53;-16308.94;;;13.94;56.21
65157;BME280;52745;49.794;18.258;2023-04-24T03:27:21;-16307.84;;;13.90;57.17
65157;BME280;52745;49.794;18.258;2023-04-24T03:29:54;-16306.34;;;13.84;56.81
65157;BME280;52745;49.794;18.258;2023-04-24T03:32:25;-16306.19;;;13.83;56.79
65157;BME280;52745;49.794;18.258;2023-04-24T03:34:52;-16307.44;;;13.88;56.79
65157;BME280;52745;49.794;18.258;2023-04-24T03:37:20;-16307.56;;;13.89;57.13
65157;BME280;52745;49.794;18.258;2023-04-24T03:39:56;-16307.03;;;13.86;56.77
65157;BME280;52745;49.794;18.258;2023-04-24T03:42:25;-16306.34;;;13.84;56.97
65157;BME280;52745;49.794;18.258;2023-04-24T03:44:55;-16305.66;;;13.81;57.20
65157;BME280;52745;49.794;18.258;2023-04-24T03:47:25;-16305.78;;;13.82;56.63
65157;BME280;52745;49.794;18.258;2023-04-24T03:49:55;-16306.06;;;13.83;56.82
65157;BME280;52745;49.794;18.258;2023-04-24T03:52:22;-16305.66;;;13.81;56.26
65157;BME280;52745;49.794;18.258;2023-04-24T03:54:49;-16305.78;;;13.82;55.45
65157;BME280;52745;49.794;18.258;2023-04-24T03:57:16;-16305.78;;;13.82;56.27
65157;BME280;52745;49.794;18.258;2023-04-24T03:59:53;-16305.13;;;13.79;56.80
65157;BME280;52745;49.794;18.258;2023-04-24T04:02:21;-16305.66;;;13.81;56.62
65157;BME280;52745;49.794;18.258;2023-04-24T04:04:48;-16305.94;;;13.82;59.28
65157;BME280;52745;49.794;18.258;2023-04-24T04:07:15;-16305.78;;;13.82;57.80
65157;BME280;52745;49.794;18.258;2023-04-24T04:09:42;-16307.28;;;13.87;58.89
65157;BME280;52745;49.794;18.258;2023-04-24T04:12:08;-16308.09;;;13.91;57.54
65157;BME280;52745;49.794;18.258;2023-04-24T04:14:35;-16308.25;;;13.91;57.99
65157;BME280;52745;49.794;18.258;2023-04-24T04:17:02;-16309.59;;;13.96;57.44
65157;BME280;52745;49.794;18.258;2023-04-24T04:19:29;-16310.41;;;13.99;57.10
65157;BME280;52745;49.794;18.258;2023-04-24T04:21:55;-16311.50;;;14.03;58.24
65157;BME280;52745;49.794;18.258;2023-04-24T04:24:33;-16310.69;;;14.00;57.93
65157;BME280;52745;49.794;18.258;2023-04-24T04:27:04;-16310.97;;;14.01;59.91
65157;BME280;52745;49.794;18.258;2023-04-24T04:29:37;-16311.38;;;14.03;56.00
65157;BME280;52745;49.794;18.258;2023-04-24T04:32:06;-16313.56;;;14.11;50.74
65157;BME280;52745;49.794;18.258;2023-04-24T04:34:33;-16315.44;;;14.18;56.28
65157;BME280;52745;49.794;18.258;2023-04-24T04:37:00;-16315.44;;;14.18;57.64
65157;BME280;52745;49.794;18.258;2023-04-24T04:40:03;-16311.78;;;14.04;60.10
65157;BME280;52745;49.794;18.258;2023-04-24T04:42:38;-16309.06;;;13.94;60.45
65157;BME280;52745;49.794;18.258;2023-04-24T04:45:08;-16310.56;;;14.00;60.38
65157;BME280;52745;49.794;18.258;2023-04-24T04:47:50;-16310.81;;;14.01;61.03
65157;BME280;52745;49.794;18.258;2023-04-24T04:50:17;-16311.09;;;14.02;61.15
65157;BME280;52745;49.794;18.258;2023-04-24T04:52:47;-16310.00;;;13.98;60.95
65157;BME280;52745;49.794;18.258;2023-04-24T04:55:22;-16310.81;;;14.01;59.13
65157;BME280;52745;49.794;18.258;2023-04-24T04:58:08;-16313.28;;;14.10;58.50
65157;BME280;52745;49.794;18.258;2023-04-24T05:00:35;-16315.72;;;14.19;58.77
65157;BME280;52745;49.794;18.258;2023-04-24T05:03:12;-16317.34;;;14.25;57.94
65157;BME280;52745;49.794;18.258;2023-04-24T05:05:39;-16319.41;;;14.33;58.23
65157;BME280;52745;49.794;18.258;2023-04-24T05:08:12;-16321.44;;;14.41;57.37
65157;BME280;52745;49.794;18.258;2023-04-24T05:10:39;-16322.94;;;14.46;57.00
65157;BME280;52745;49.794;18.258;2023-04-24T05:13:06;-16324.69;;;14.53;56.47
65157;BME280;52745;49.794;18.258;2023-04-24T05:15:33;-16326.34;;;14.59;54.92
65157;BME280;52745;49.794;18.258;2023-04-24T05:18:01;-16327.97;;;14.65;53.19
65157;BME280;52745;49.794;18.258;2023-04-24T05:20:28;-16329.88;;;14.73;50.58
65157;BME280;52745;49.794;18.258;2023-04-24T05:22:55;-16332.31;;;14.82;50.72
65157;BME280;52745;49.794;18.258;2023-04-24T05:25:23;-16335.03;;;14.92;49.99
65157;BME280;52745;49.794;18.258;2023-04-24T05:27:55;-16338.03;;;15.03;50.34
65157;BME280;52745;49.794;18.258;2023-04-24T05:30:23;-16340.47;;;15.13;50.34
65157;BME280;52745;49.794;18.258;2023-04-24T05:32:50;-16344.28;;;15.27;49.76
65157;BME280;52745;49.794;18.258;2023-04-24T05:35:17;-16347.41;;;15.39;50.58
65157;BME280;52745;49.794;18.258;2023-04-24T05:37:45;-16350.00;;;15.48;50.89
65157;BME280;52745;49.794;18.258;2023-04-24T05:40:12;-16353.81;;;15.63;49.12
65157;BME280;52745;49.794;18.258;2023-04-24T05:42:39;-16357.63;;;15.77;47.44
65157;BME280;52745;49.794;18.258;2023-04-24T05:45:06;-16360.19;;;15.87;48.89
65157;BME280;52745;49.794;18.258;2023-04-24T05:47:35;-16362.22;;;15.95;48.31
65157;BME280;52745;49.794;18.258;2023-04-24T05:50:02;-16364.13;;;16.02;47.80
65157;BME280;52745;49.794;18.258;2023-04-24T05:52:29;-16361.97;;;15.93;47.64
65157;BME280;52745;49.794;18.258;2023-04-24T05:54:56;-16363.59;;;16.00;46.55
65157;BME280;52745;49.794;18.258;2023-04-24T05:57:25;-16364.28;;;16.02;47.00
65157;BME280;52745;49.794;18.258;2023-04-24T06:00:03;-16365.50;;;16.07;46.03
65157;BME280;52745;49.794;18.258;2023-04-24T06:02:40;-16366.84;;;16.12;47.48
65157;BME280;52745;49.794;18.258;2023-04-24T06:05:09;-16366.56;;;16.11;48.20
65157;BME280;52745;49.794;18.258;2023-04-24T06:07:35;-16366.84;;;16.12;47.57
65157;BME280;52745;49.794;18.258;2023-04-24T06:10:05;-16368.75;;;16.19;46.48
65157;BME280;52745;49.794;18.258;2023-04-24T06:12:38;-16370.66;;;16.26;46.42
65157;BME280;52745;49.794;18.258;2023-04-24T06:15:12;-16372.28;;;16.32;45.80
65157;BME280;52745;49.794;18.258;2023-04-24T06:17:51;-16371.88;;;16.31;44.28
65157;BME280;52745;49.794;18.258;2023-04-24T06:20:19;-16370.25;;;16.25;44.51
65157;BME280;52745;49.794;18.258;2023-04-24T06:22:46;-16369.56;;;16.22;44.83
65157;BME280;52745;49.794;18.258;2023-04-24T06:25:13;-16368.22;;;16.17;43.98
65157;BME280;52745;49.794;18.258;2023-04-24T06:27:39;-16367.13;;;16.13;44.44
65157;BME280;52745;49.794;18.258;2023-04-24T06:30:08;-16364.69;;;16.04;42.96
65157;BME280;52745;49.794;18.258;2023-04-24T06:32:35;-16364.94;;;16.05;43.26
65157;BME280;52745;49.794;18.258;2023-04-24T06:35:02;-16366.31;;;16.10;42.85
65157;BME280;52745;49.794;18.258;2023-04-24T06:37:28;-16366.56;;;16.11;43.18
65157;BME280;52745;49.794;18.258;2023-04-24T06:39:55;-16363.72;;;16.00;42.96
65157;BME280;52745;49.794;18.258;2023-04-24T06:42:22;-16359.78;;;15.85;43.63
65157;BME280;52745;49.794;18.258;2023-04-24T06:44:52;-16359.78;;;15.85;44.05
65157;BME280;52745;49.794;18.258;2023-04-24T06:47:20;-16358.97;;;15.82;44.29
65157;BME280;52745;49.794;18.258;2023-04-24T06:49:47;-16358.97;;;15.82;44.67
65157;BME280;52745;49.794;18.258;2023-04-24T06:52:14;-16357.63;;;15.77;45.75
65157;BME280;52745;49.794;18.258;2023-04-24T06:54:41;-16360.19;;;15.87;44.76
65157;BME280;52745;49.794;18.258;2023-04-24T06:57:08;-16360.59;;;15.88;44.97
65157;BME280;52745;49.794;18.258;2023-04-24T06:59:35;-16362.50;;;15.96;46.82
65157;BME280;52745;49.794;18.258;2023-04-24T07:02:02;-16360.59;;;15.88;47.05
65157;BME280;52745;49.794;18.258;2023-04-24T07:04:29;-16359.25;;;15.83;45.84
65157;BME280;52745;49.794;18.258;2023-04-24T07:06:56;-16359.94;;;15.86;45.78
65157;BME280;52745;49.794;18.258;2023-04-24T07:09:25;-16359.66;;;15.85;46.17
65157;BME280;52745;49.794;18.258;2023-04-24T07:11:52;-16358.16;;;15.79;46.77
65157;BME280;52745;49.794;18.258;2023-04-24T07:14:20;-16358.28;;;15.80;46.32
65157;BME280;52745;49.794;18.258;2023-04-24T07:16:46;-16360.06;;;15.86;46.99
65157;BME280;52745;49.794;18.258;2023-04-24T07:19:13;-16361.56;;;15.92;47.52
65157;BME280;52745;49.794;18.258;2023-04-24T07:21:40;-16361.97;;;15.93;46.94
65157;BME280;52745;49.794;18.258;2023-04-24T07:24:07;-16365.63;;;16.07;46.10
65157;BME280;52745;49.794;18.258;2023-04-24T07:26:37;-16367.66;;;16.15;46.28
65157;BME280;52745;49.794;18.258;2023-04-24T07:29:06;-16369.44;;;16.22;45.82
65157;BME280;52745;49.794;18.258;2023-04-24T07:31:32;-16373.91;;;16.39;45.37
65157;BME280;52745;49.794;18.258;2023-04-24T07:33:59;-16378.66;;;16.57;44.97
65157;BME280;52745;49.794;18.258;2023-04-24T07:36:26;-16387.78;;;16.91;44.76
65157;BME280;52745;49.794;18.258;2023-04-24T07:38:53;-16389.69;;;16.98;45.19
65157;BME280;52745;49.794;18.258;2023-04-24T07:41:20;-16390.22;;;17.00;45.09
65157;BME280;52745;49.794;18.258;2023-04-24T07:43:47;-16398.38;;;17.31;44.40
65157;BME280;52745;49.794;18.258;2023-04-24T07:46:14;-16409.34;;;17.72;43.47
65157;BME280;52745;49.794;18.258;2023-04-24T07:48:41;-16409.34;;;17.72;43.62
65157;BME280;52745;49.794;18.258;2023-04-24T07:51:07;-16425.25;;;18.32;41.80
65157;BME280;52745;49.794;18.258;2023-04-24T07:53:37;-16418.84;;;18.08;42.55
65157;BME280;52745;49.794;18.258;2023-04-24T07:56:04;-16414.94;;;17.93;44.15
65157;BME280;52745;49.794;18.258;2023-04-24T07:58:31;-16413.31;;;17.87;43.67
65157;BME280;52745;49.794;18.258;2023-04-24T08:00:57;-16412.34;;;17.84;43.76
65157;BME280;52745;49.794;18.258;2023-04-24T08:03:24;-16408.00;;;17.67;44.40
65157;BME280;52745;49.794;18.258;2023-04-24T08:05:51;-16413.03;;;17.86;44.65
65157;BME280;52745;49.794;18.258;2023-04-24T08:08:21;-16418.47;;;18.07;44.35
65157;BME280;52745;49.794;18.258;2023-04-24T08:10:48;-16426.31;;;18.36;43.92
65157;BME280;52745;49.794;18.258;2023-04-24T08:13:15;-16418.72;;;18.08;45.20
65157;BME280;52745;49.794;18.258;2023-04-24T08:15:42;-16408.53;;;17.69;46.00
65157;BME280;52745;49.794;18.258;2023-04-24T08:18:09;-16412.34;;;17.84;44.40
65157;BME280;52745;49.794;18.258;2023-04-24T08:20:38;-16407.47;;;17.65;45.42
65157;BME280;52745;49.794;18.258;2023-04-24T08:23:04;-16396.19;;;17.23;47.84
65157;BME280;52745;49.794;18.258;2023-04-24T08:25:32;-16394.84;;;17.17;49.27
65157;BME280;52745;49.794;18.258;2023-04-24T08:27:58;-16394.03;;;17.14;47.22
65157;BME280;52745;49.794;18.258;2023-04-24T08:30:25;-16396.06;;;17.22;47.47
65157;BME280;52745;49.794;18.258;2023-04-24T08:32:52;-16395.25;;;17.19;47.13
65157;BME280;52745;49.794;18.258;2023-04-24T08:35:18;-16397.28;;;17.27;48.73
65157;BME280;52745;49.794;18.258;2023-04-24T08:37:45;-16395.25;;;17.19;45.77
65157;BME280;52745;49.794;18.258;2023-04-24T08:40:13;-16390.50;;;17.01;45.85
65157;BME280;52745;49.794;18.258;2023-04-24T08:42:42;-16391.03;;;17.03;46.38
65157;BME280;52745;49.794;18.258;2023-04-24T08:45:11;-16382.59;;;16.71;45.82
65157;BME280;52745;49.794;18.258;2023-04-24T08:47:40;-16375.81;;;16.46;46.38
65157;BME280;52745;49.794;18.258;2023-04-24T08:50:08;-16376.38;;;16.48;46.90
65157;BME280;52745;49.794;18.258;2023-04-24T08:52:36;-16379.22;;;16.59;47.43
65157;BME280;52745;49.794;18.258;2023-04-24T08:55:03;-16380.44;;;16.63;49.02
65157;BME280;52745;49.794;18.258;2023-04-24T08:57:32;-16382.75;;;16.72;50.24
65157;BME280;52745;49.794;18.258;2023-04-24T08:59:59;-16383.16;;;16.73;51.54
65157;BME280;52745;49.794;18.258;2023-04-24T09:02:27;-16381.25;;;16.66;53.84
65157;BME280;52745;49.794;18.258;2023-04-24T09:04:55;-16381.13;;;16.66;54.01
65157;BME280;52745;49.794;18.258;2023-04-24T09:07:24;-16380.97;;;16.65;54.63
65157;BME280;52745;49.794;18.258;2023-04-24T09:09:52;-16383.84;;;16.76;53.27
65157;BME280;52745;49.794;18.258;2023-04-24T09:12:20;-16386.69;;;16.87;52.08
65157;BME280;52745;49.794;18.258;2023-04-24T09:14:47;-16390.75;;;17.02;52.25
65157;BME280;52745;49.794;18.258;2023-04-24T09:17:14;-16395.91;;;17.22;51.64
65157;BME280;52745;49.794;18.258;2023-04-24T09:19:41;-16406.38;;;17.61;50.32
65157;BME280;52745;49.794;18.258;2023-04-24T09:22:09;-16419.94;;;18.12;49.53
65157;BME280;52745;49.794;18.258;2023-04-24T09:24:35;-16427.41;;;18.40;47.57
65157;BME280;52745;49.794;18.258;2023-04-24T09:27:03;-16447.34;;;19.16;46.09
65157;BME280;52745;49.794;18.258;2023-04-24T09:29:30;-16475.13;;;20.21;48.02
65157;BME280;52745;49.794;18.258;2023-04-24T09:31:58;-16502.09;;;21.23;42.16
65157;BME280;52745;49.794;18.258;2023-04-24T09:34:27;-16527.13;;;22.18;40.56
65157;BME280;52745;49.794;18.258;2023-04-24T09:36:54;-16570.53;;;23.82;36.26
65157;BME280;52745;49.794;18.258;2023-04-24T09:39:21;-16609.56;;;25.30;33.55
65157;BME280;52745;49.794;18.258;2023-04-24T09:41:55;-16646.25;;;26.70;30.12
65157;BME280;52745;49.794;18.258;2023-04-24T09:44:26;-16644.91;;;26.65;30.37
65157;BME280;52745;49.794;18.258;2023-04-24T09:46:58;-16631.13;;;26.12;31.17
65157;BME280;52745;49.794;18.258;2023-04-24T09:49:26;-16609.56;;;25.30;32.58
65157;BME280;52745;49.794;18.258;2023-04-24T09:52:10;-16581.34;;;24.23;33.52
65157;BME280;52745;49.794;18.258;2023-04-24T09:54:37;-16546.75;;;22.92;33.97
65157;BME280;52745;49.794;18.258;2023-04-24T09:57:06;-16528.47;;;22.23;34.99
65157;BME280;52745;49.794;18.258;2023-04-24T09:59:33;-16512.50;;;21.62;37.05
65157;BME280;52745;49.794;18.258;2023-04-24T10:02:00;-16502.63;;;21.25;38.69
65157;BME280;52745;49.794;18.258;2023-04-24T10:04:28;-16501.41;;;21.20;42.27
65157;BME280;52745;49.794;18.258;2023-04-24T10:06:56;-16490.16;;;20.78;45.50
65157;BME280;52745;49.794;18.258;2023-04-24T10:09:25;-16481.38;;;20.44;40.45
65157;BME280;52745;49.794;18.258;2023-04-24T10:11:53;-16466.47;;;19.88;43.63
65157;BME280;52745;49.794;18.258;2023-04-24T10:14:22;-16459.13;;;19.60;45.17
65157;BME280;52745;49.794;18.258;2023-04-24T10:16:50;-16451.97;;;19.33;46.36
65157;BME280;52745;49.794;18.258;2023-04-24T10:19:17;-16444.09;;;19.03;48.74
65157;BME280;52745;49.794;18.258;2023-04-24T10:21:47;-16439.06;;;18.85;46.74
65157;BME280;52745;49.794;18.258;2023-04-24T10:24:15;-16432.28;;;18.59;47.46
65157;BME280;52745;49.794;18.258;2023-04-24T10:26:43;-16426.31;;;18.36;45.55
65157;BME280;52745;49.794;18.258;2023-04-24T10:29:11;-16417.91;;;18.05;45.24
65157;BME280;52745;49.794;18.258;2023-04-24T10:31:39;-16412.34;;;17.84;49.58
65157;BME280;52745;49.794;18.258;2023-04-24T10:34:07;-16408.28;;;17.68;46.09
65157;BME280;52745;49.794;18.258;2023-04-24T10:36:36;-16402.97;;;17.48;46.67
65157;BME280;52745;49.794;18.258;2023-04-24T10:39:06;-16397.13;;;17.26;49.00
65157;BME280;52745;49.794;18.258;2023-04-24T10:41:37;-16391.31;;;17.04;48.93
65157;BME280;52745;49.794;18.258;2023-04-24T10:44:08;-16388.44;;;16.93;48.12
65157;BME280;52745;49.794;18.258;2023-04-24T10:46:36;-16381.78;;;16.68;48.97
65157;BME280;52745;49.794;18.258;2023-04-24T10:49:07;-16379.34;;;16.59;49.71
65157;BME280;52745;49.794;18.258;2023-04-24T10:51:50;-16374.19;;;16.40;50.11
65157;BME280;52745;49.794;18.258;2023-04-24T10:54:33;-16370.94;;;16.27;50.70
65157;BME280;52745;49.794;18.258;2023-04-24T11:00:42;-16359.09;;;15.83;55.01
65157;BME280;52745;49.794;18.258;2023-04-24T11:03:04;-16350.81;;;15.51;57.03
65157;BME280;52745;49.794;18.258;2023-04-24T11:05:51;-16346.19;;;15.34;57.11
65157;BME280;52745;49.794;18.258;2023-04-24T11:08:58;-16342.94;;;15.22;57.45
65157;BME280;52745;49.794;18.258;2023-04-24T11:11:19;-16343.06;;;15.22;57.43
65157;BME280;52745;49.794;18.258;2023-04-24T11:16:28;-16341.44;;;15.16;58.57
65157;BME280;52745;49.794;18.258;2023-04-24T11:25:12;-16344.03;;;15.26;59.24
65157;BME280;52745;49.794;18.258;2023-04-24T11:27:30;-16344.56;;;15.28;59.04
65157;BME280;52745;49.794;18.258;2023-04-24T11:32:36;-16343.06;;;15.22;60.81
65157;BME280;52745;49.794;18.258;2023-04-24T11:37:44;-16345.09;;;15.30;62.40
65157;BME280;52745;49.794;18.258;2023-04-24T11:40:21;-16343.88;;;15.25;61.99
65157;BME280;52745;49.794;18.258;2023-04-24T11:42:53;-16345.78;;;15.32;62.25
65157;BME280;52745;49.794;18.258;2023-04-24T11:45:27;-16343.88;;;15.25;62.74
65157;BME280;52745;49.794;18.258;2023-04-24T11:47:54;-16341.56;;;15.17;63.60
65157;BME280;52745;49.794;18.258;2023-04-24T11:50:25;-16333.00;;;14.84;64.48
65157;BME280;52745;49.794;18.258;2023-04-24T11:52:54;-16331.50;;;14.79;65.98
65157;BME280;52745;49.794;18.258;2023-04-24T11:57:51;-16327.16;;;14.62;67.50
65157;BME280;52745;49.794;18.258;2023-04-24T12:00:21;-16325.38;;;14.56;69.09
65157;BME280;52745;49.794;18.258;2023-04-24T12:02:49;-16324.44;;;14.52;70.46
65157;BME280;52745;49.794;18.258;2023-04-24T12:05:26;-16320.75;;;14.38;72.08
65157;BME280;52745;49.794;18.258;2023-04-24T12:07:53;-16322.25;;;14.44;72.46
65157;BME280;52745;49.794;18.258;2023-04-24T12:10:21;-16321.44;;;14.41;73.36
65157;BME280;52745;49.794;18.258;2023-04-24T12:12:49;-16322.81;;;14.46;73.58
65157;BME280;52745;49.794;18.258;2023-04-24T12:15:19;-16323.88;;;14.50;74.48
65157;BME280;52745;49.794;18.258;2023-04-24T12:17:46;-16322.81;;;14.46;73.84
65157;BME280;52745;49.794;18.258;2023-04-24T12:20:14;-16322.38;;;14.44;74.25
65157;BME280;52745;49.794;18.258;2023-04-24T12:25:16;-16324.84;;;14.54;76.02
65157;BME280;52745;49.794;18.258;2023-04-24T12:27:45;-16324.84;;;14.54;76.74
65157;BME280;52745;49.794;18.258;2023-04-24T12:30:14;-16324.28;;;14.52;76.71
65157;BME280;52745;49.794;18.258;2023-04-24T12:32:47;-16322.25;;;14.44;79.50
65157;BME280;52745;49.794;18.258;2023-04-24T12:35:19;-16321.44;;;14.41;80.50
65157;BME280;52745;49.794;18.258;2023-04-24T12:37:47;-16317.22;;;14.25;79.01
65157;BME280;52745;49.794;18.258;2023-04-24T12:40:14;-16316.69;;;14.23;80.35
65157;BME280;52745;49.794;18.258;2023-04-24T12:42:46;-16315.44;;;14.18;80.29
65157;BME280;52745;49.794;18.258;2023-04-24T12:45:13;-16314.63;;;14.15;80.95
65157;BME280;52745;49.794;18.258;2023-04-24T12:47:41;-16314.38;;;14.14;79.97
65157;BME280;52745;49.794;18.258;2023-04-24T12:50:13;-16315.72;;;14.19;78.34
65157;BME280;52745;49.794;18.258;2023-04-24T12:52:41;-16315.19;;;14.17;78.54
65157;BME280;52745;49.794;18.258;2023-04-24T12:55:08;-16314.63;;;14.15;76.63
65157;BME280;52745;49.794;18.258;2023-04-24T12:57:37;-16311.66;;;14.04;77.04
65157;BME280;52745;49.794;18.258;2023-04-24T13:00:06;-16311.66;;;14.04;77.51
65157;BME280;52745;49.794;18.258;2023-04-24T13:02:34;-16310.16;;;13.98;77.78
65157;BME280;52745;49.794;18.258;2023-04-24T13:05:01;-16310.41;;;13.99;76.84
65157;BME280;52745;49.794;18.258;2023-04-24T13:07:30;-16309.75;;;13.97;77.03
65157;BME280;52745;49.794;18.258;2023-04-24T13:09:58;-16308.09;;;13.91;76.99